Time;durP1;ratioP1;P1;durP2;ratioP2;P2;SDS_P1;SDS_P2;PMS_P1;PMS_P2;Temp;Humidity;BMP_temperature;BMP_pressure;BME280_temperature;BME280_humidity;BME280_pressure;Samples;Min_cycle;Max_cycle;Signal;HPM_P1;HPM_P2
2021/08/11 07:28:16;;;;;;;56.17;28.25;;;;;;;22.39;75.79;99681.94;5777350;23;20049;-88
2021/08/11 07:30:45;;;;;;;47.72;27.95;;;;;;;22.46;75.28;99691.16;5031998;28;20045;-85
2021/08/11 07:33:12;;;;;;;60.00;29.00;;;;;;;22.50;74.66;99683.63;5029083;28;20038;-92
2021/08/11 07:35:40;;;;;;;61.80;30.77;;;;;;;22.54;75.48;99688.41;5018023;28;20061;-88
2021/08/11 07:38:09;;;;;;;56.22;30.13;;;;;;;22.43;75.02;99686.34;5012100;28;20045;-88
2021/08/11 07:40:38;;;;;;;64.90;33.78;;;;;;;22.46;76.39;99685.56;5013278;28;20038;-86
2021/08/11 07:43:06;;;;;;;57.78;32.65;;;;;;;22.47;76.19;99689.16;5030803;28;20045;-75
2021/08/11 07:45:33;;;;;;;58.70;33.20;;;;;;;22.47;76.11;99680.81;5031406;28;20041;-86
2021/08/11 07:47:59;;;;;;;;;;;;;;;22.56;75.24;99688.84;5030993;28;20045;-77
2021/08/11 07:50:29;;;;;;;56.88;31.13;;;;;;;22.45;76.40;99678.41;5031682;28;19967;-81
2021/08/11 07:52:56;;;;;;;73.68;34.40;;;;;;;22.60;76.64;99682.09;5024351;28;20410;-75
2021/08/11 07:55:23;;;;;;;71.57;36.88;;;;;;;22.61;76.46;99685.69;5011653;28;20034;-83
2021/08/11 07:57:51;;;;;;;56.55;30.23;;;;;;;22.63;75.07;99684.13;5019820;28;20033;-78
2021/08/11 08:00:19;;;;;;;56.17;30.25;;;;;;;22.63;75.71;99678.56;5031693;28;20045;-74
2021/08/11 08:02:45;;;;;;;46.85;28.95;;;;;;;22.64;75.19;99688.50;5031594;28;20038;-75
2021/08/11 08:05:13;;;;;;;55.25;27.65;;;;;;;22.70;74.69;99680.59;5031096;28;20095;-79
2021/08/11 08:07:39;;;;;;;66.57;29.80;;;;;;;22.79;75.61;99683.06;5030738;28;20056;-81
2021/08/11 08:10:06;;;;;;;70.25;33.05;;;;;;;22.81;75.15;99677.88;5027734;28;20489;-73
2021/08/11 08:12:32;;;;;;;75.28;34.05;;;;;;;22.70;75.35;99675.81;5033676;28;20140;-75
2021/08/11 08:14:58;;;;;;;74.47;35.00;;;;;;;22.78;76.58;99673.09;5033947;28;20477;-81
2021/08/11 08:17:24;;;;;;;63.73;33.73;;;;;;;22.69;76.32;99660.28;5032549;28;20065;-75
2021/08/11 08:19:50;;;;;;;66.60;35.42;;;;;;;22.79;74.95;99658.78;5035130;28;20076;-91
2021/08/11 08:22:17;;;;;;;62.28;32.45;;;;;;;22.75;75.10;99674.69;5005177;28;20041;-89
2021/08/11 08:24:45;;;;;;;56.03;33.05;;;;;;;22.42;74.37;99640.19;5000301;28;20509;-90
2021/08/11 08:27:11;;;;;;;63.08;36.55;;;;;;;22.24;75.57;99630.84;5017372;28;20060;-89
2021/08/11 08:29:38;;;;;;;62.67;35.78;;;;;;;22.31;75.68;99627.31;5003908;28;20065;-90
2021/08/11 08:32:04;;;;;;;72.07;38.92;;;;;;;22.24;75.53;99631.66;4985019;28;20038;-89
2021/08/11 08:34:32;;;;;;;84.82;40.53;;;;;;;22.55;76.50;99662.16;5000017;28;20091;-90
2021/08/11 08:36:58;;;;;;;73.82;39.28;;;;;;;22.52;76.53;99664.53;4983933;28;20043;-89
2021/08/11 08:39:25;;;;;;;65.78;36.13;;;;;;;22.54;75.66;99661.34;4989348;28;20052;-82
2021/08/11 08:41:53;;;;;;;92.40;45.10;;;;;;;22.61;76.83;99664.19;5033328;28;20037;-81
2021/08/11 08:44:19;;;;;;;77.18;44.60;;;;;;;22.51;76.23;99648.19;5035156;28;20164;-89
2021/08/11 08:46:45;;;;;;;70.50;44.27;;;;;;;22.40;76.78;99638.97;4999906;28;20140;-90
2021/08/11 08:49:15;;;;;;;85.22;49.30;;;;;;;22.42;76.86;99642.16;4989046;28;20700;-90
2021/08/11 08:51:46;;;;;;;77.60;46.13;;;;;;;22.37;77.36;99643.31;5000353;28;20052;-90
2021/08/11 08:54:20;;;;;;;80.20;48.67;;;;;;;22.54;77.95;99660.56;5002093;28;20645;-90
2021/08/11 08:56:46;;;;;;;84.10;50.47;;;;;;;22.40;77.72;99636.16;5024318;28;20041;-90
2021/08/11 08:59:13;;;;;;;93.97;51.03;;;;;;;22.41;78.15;99640.53;5008900;28;20086;-89
2021/08/11 09:01:41;;;;;;;82.13;50.15;;;;;;;22.63;78.36;99658.25;5007721;28;20038;-90
2021/08/11 09:04:07;;;;;;;80.20;44.88;;;;;;;22.58;77.82;99642.66;5008277;28;20038;-90
2021/08/11 09:06:36;;;;;;;67.40;34.88;;;;;;;22.47;75.83;99616.72;5006023;28;20044;-89
2021/08/11 09:09:08;;;;;;;54.70;28.33;;;;;;;22.62;74.07;99632.38;5007165;28;20501;-90
2021/08/11 09:11:36;;;;;;;51.35;27.00;;;;;;;22.63;73.95;99652.69;5005931;28;20037;-90
2021/08/11 09:14:18;;;;;;;60.60;33.35;;;;;;;22.65;76.08;99650.28;5034760;28;20041;-90
2021/08/11 09:16:47;;;;;;;61.42;36.33;;;;;;;22.34;76.76;99623.78;4989851;28;20052;-89
2021/08/11 09:19:13;;;;;;;61.30;37.05;;;;;;;22.40;77.03;99658.44;5034132;28;20049;-80
2021/08/11 09:21:39;;;;;;;58.67;34.25;;;;;;;22.40;77.30;99650.91;5031295;28;20476;-84
2021/08/11 09:24:17;;;;;;;66.45;39.78;;;;;;;22.41;77.14;99649.69;5032918;28;20132;-80
2021/08/11 09:26:44;;;;;;;55.85;35.85;;;;;;;22.33;77.20;99638.91;5033175;28;20055;-79
2021/08/11 09:29:10;;;;;;;55.65;34.50;;;;;;;22.38;77.33;99646.88;5028239;28;20168;-86
2021/08/11 09:31:38;;;;;;;60.05;35.65;;;;;;;22.23;76.91;99638.41;5031523;28;20124;-86
2021/08/11 09:34:06;;;;;;;63.88;35.17;;;;;;;22.20;77.92;99644.75;5011129;28;20117;-82
2021/08/11 09:36:55;;;;;;;57.28;35.72;;;;;;;22.17;77.98;99639.94;5033006;28;20265;-83
2021/08/11 09:39:21;;;;;;;65.65;36.00;;;;;;;22.05;78.13;99632.66;5032512;28;20037;-84
2021/08/11 09:41:59;;;;;;;59.00;33.97;;;;;;;22.19;77.85;99642.34;5033181;28;20056;-90
2021/08/11 09:44:25;;;;;;;58.60;33.42;;;;;;;22.15;77.77;99641.47;5033477;28;20037;-89
2021/08/11 09:46:52;;;;;;;51.63;32.88;;;;;;;22.17;78.00;99648.28;5032683;28;20060;-83
2021/08/11 09:49:24;;;;;;;58.80;33.90;;;;;;;22.17;77.83;99653.06;5032150;28;20045;-79
2021/08/11 09:52:09;;;;;;;52.42;32.75;;;;;;;22.25;77.54;99663.06;5028725;28;20044;-78
2021/08/11 09:54:36;;;;;;;61.70;36.92;;;;;;;22.20;78.61;99643.94;5032081;28;20041;-89
2021/08/11 09:57:03;;;;;;;43.35;27.30;;;;;;;22.25;75.81;99654.72;5030229;28;20379;-79
2021/08/11 09:59:29;;;;;;;50.20;27.92;;;;;;;22.23;75.83;99673.81;5031984;28;20044;-80
2021/08/11 10:02:27;;;;;;;56.30;28.23;;;;;;;22.23;76.41;99666.25;5030228;28;20175;-79
2021/08/11 10:04:54;;;;;;;52.25;30.02;;;;;;;22.31;76.81;99677.47;4976853;28;20041;-79
2021/08/11 10:07:20;;;;;;;58.30;34.08;;;;;;;22.33;77.29;99675.09;5032392;28;20034;-79
2021/08/11 10:10:06;;;;;;;58.03;33.35;;;;;;;22.35;77.76;99678.28;5012112;28;20526;-79
2021/08/11 10:12:35;;;;;;;60.45;32.78;;;;;;;22.33;76.82;99667.53;5027788;28;20060;-84
2021/08/11 10:15:04;;;;;;;58.17;30.38;;;;;;;22.23;76.21;99671.81;5022893;28;20029;-82
2021/08/11 10:17:34;;;;;;;57.65;32.08;;;;;;;22.23;76.43;99669.03;5029002;28;20037;-79
2021/08/11 10:20:03;;;;;;;67.60;34.95;;;;;;;22.27;77.88;99655.16;5030289;28;20060;-79
2021/08/11 10:22:30;;;;;;;68.82;37.60;;;;;;;22.28;77.90;99662.31;5012218;28;20051;-85
2021/08/11 10:24:58;;;;;;;71.05;37.50;;;;;;;22.36;77.97;99665.97;5029631;28;20502;-81
2021/08/11 10:27:26;;;;;;;71.55;40.72;;;;;;;22.37;78.89;99664.78;5031079;28;20128;-81
2021/08/11 10:29:52;;;;;;;;;;;;;;;22.47;78.75;99675.22;5029901;28;20041;-82
2021/08/11 10:32:22;;;;;;;72.55;40.55;;;;;;;22.52;78.96;99672.09;5010666;28;19956;-84
2021/08/11 10:34:52;;;;;;;61.38;38.08;;;;;;;22.48;77.97;99658.13;5013733;28;20037;-85
2021/08/11 10:37:20;;;;;;;62.42;34.28;;;;;;;22.41;77.77;99655.28;5032635;28;20076;-78
2021/08/11 10:39:46;;;;;;;59.90;32.03;;;;;;;22.53;76.95;99670.91;5032626;28;20052;-80
2021/08/11 10:42:17;;;;;;;59.58;31.55;;;;;;;22.34;77.93;99637.69;5027816;28;20037;-83
2021/08/11 10:44:45;;;;;;;53.75;29.90;;;;;;;22.53;77.55;99665.34;5025453;28;20037;-80
2021/08/11 10:47:12;;;;;;;43.95;28.17;;;;;;;22.57;77.03;99666.16;5023857;28;20086;-80
2021/08/11 10:50:01;;;;;;;45.75;26.40;;;;;;;22.59;76.60;99655.44;5029321;28;20044;-85
2021/08/11 10:52:29;;;;;;;40.97;25.83;;;;;;;22.59;76.45;99668.56;5026590;28;20048;-86
2021/08/11 10:55:00;;;;;;;48.72;28.52;;;;;;;22.53;76.44;99659.75;5029928;28;20030;-87
2021/08/11 10:57:40;;;;;;;51.75;28.75;;;;;;;22.53;77.35;99656.97;5029812;28;20045;-79
2021/08/11 11:00:20;;;;;;;58.00;29.27;;;;;;;22.34;76.79;99657.19;5031469;28;20033;-87
2021/08/11 11:02:52;;;;;;;51.35;28.88;;;;;;;22.19;76.99;99643.16;5023946;28;20041;-87
2021/08/11 11:05:24;;;;;;;44.00;27.65;;;;;;;22.12;77.08;99653.38;5030619;28;20120;-79
2021/08/11 11:08:15;;;;;;;40.28;25.17;;;;;;;22.08;76.67;99647.78;5024394;28;20076;-81
2021/08/11 11:10:44;;;;;;;48.58;27.20;;;;;;;22.05;77.09;99637.38;5014598;28;20043;-80
2021/08/11 11:13:29;;;;;;;50.92;28.83;;;;;;;22.04;77.27;99633.81;5028795;28;20056;-80
2021/08/11 11:15:56;;;;;;;47.20;29.52;;;;;;;22.06;77.06;99633.44;5026845;28;20517;-83
2021/08/11 11:18:24;;;;;;;49.45;30.15;;;;;;;22.02;77.79;99624.25;5026509;28;20501;-79
2021/08/11 11:20:56;;;;;;;62.53;33.60;;;;;;;22.04;78.34;99622.69;5027363;28;20034;-84
2021/08/11 11:23:42;;;;;;;56.42;31.13;;;;;;;21.83;78.08;99589.06;5025950;28;20045;-79
2021/08/11 11:26:10;;;;;;;50.95;30.38;;;;;;;21.76;78.02;99591.78;5027268;28;20452;-83
2021/08/11 11:28:56;;;;;;;52.45;31.58;;;;;;;21.75;77.77;99595.72;5029800;28;20417;-82
2021/08/11 11:31:32;;;;;;;70.25;35.50;;;;;;;21.66;78.99;99590.50;5028830;28;20080;-85
2021/08/11 11:34:20;;;;;;;61.45;33.67;;;;;;;21.57;79.72;99582.44;5029537;28;20045;-80
2021/08/11 11:37:08;;;;;;;65.72;33.78;;;;;;;21.48;79.19;99573.59;5024704;28;20056;-79
2021/08/11 11:39:54;;;;;;;75.35;36.90;;;;;;;21.52;80.27;99566.09;5011348;28;20061;-86
2021/08/11 11:42:27;;;;;;;69.57;37.30;;;;;;;21.47;80.10;99563.66;5010227;28;20037;-86
2021/08/11 11:44:59;;;;;;;75.63;37.83;;;;;;;21.55;80.25;99575.66;5026102;28;20085;-80
2021/08/11 11:47:37;;;;;;;76.13;39.50;;;;;;;21.66;79.57;99573.00;5028317;28;20043;-90
2021/08/11 11:50:19;;;;;;;76.05;39.75;;;;;;;21.72;79.63;99572.28;5027669;28;20049;-84
2021/08/11 11:52:56;;;;;;;73.03;39.28;;;;;;;21.78;79.37;99576.28;5027685;28;20113;-85
2021/08/11 11:55:43;;;;;;;73.68;44.72;;;;;;;21.86;79.58;99570.81;5005552;28;20040;-83
2021/08/11 11:58:10;;;;;;;86.28;46.17;;;;;;;21.91;79.44;99570.44;5027350;28;20072;-85
2021/08/11 12:00:37;;;;;;;82.53;46.72;;;;;;;21.89;79.46;99558.91;5027034;28;20037;-82
2021/08/11 12:03:04;;;;;;;81.72;45.03;;;;;;;21.84;79.11;99548.91;5027019;28;20038;-82
2021/08/11 12:05:52;;;;;;;87.70;49.47;;;;;;;21.90;79.71;99552.16;5026529;28;20072;-82
2021/08/11 12:08:20;;;;;;;95.22;49.38;;;;;;;21.86;79.46;99559.69;5021751;28;20046;-83
2021/08/11 12:11:12;;;;;;;84.80;50.00;;;;;;;21.83;79.53;99561.25;5010663;28;20041;-88
2021/08/11 12:13:45;;;;;;;75.93;48.50;;;;;;;21.92;79.75;99577.63;5028972;28;20037;-87
2021/08/11 12:16:13;;;;;;;72.63;44.13;;;;;;;21.96;79.37;99576.47;5030501;28;20061;-82
2021/08/11 12:18:41;;;;;;;77.88;49.20;;;;;;;21.94;79.25;99570.47;5024637;28;20045;-84
2021/08/11 12:21:10;;;;;;;78.50;48.10;;;;;;;21.81;79.05;99539.34;5019931;28;20128;-83
2021/08/11 12:23:36;;;;;;;86.18;51.90;;;;;;;21.86;79.55;99543.00;5025571;28;20076;-82
2021/08/11 12:26:06;;;;;;;82.85;51.35;;;;;;;22.12;79.61;99575.41;5027812;28;20046;-83
2021/08/11 12:28:36;;;;;;;102.07;60.90;;;;;;;22.07;79.67;99571.00;5029487;28;20073;-86
2021/08/11 12:31:17;;;;;;;90.18;50.03;;;;;;;22.05;79.51;99567.78;5026131;28;20055;-87
2021/08/11 12:33:45;;;;;;;81.75;46.90;;;;;;;22.05;78.94;99567.78;5029844;28;20040;-87
2021/08/11 12:36:23;;;;;;;69.55;45.55;;;;;;;22.03;79.20;99556.25;5029894;28;20044;-86
2021/08/11 12:39:03;;;;;;;72.80;43.45;;;;;;;22.04;79.03;99563.41;5029761;28;20144;-83
2021/08/11 12:41:34;;;;;;;80.85;43.22;;;;;;;22.04;78.80;99555.88;5029062;28;20132;-90
2021/08/11 12:44:23;;;;;;;72.13;42.33;;;;;;;22.02;78.84;99544.31;5028390;28;20045;-84
2021/08/11 12:46:57;;;;;;;62.97;40.13;;;;;;;22.01;78.63;99525.22;5027835;28;20045;-84
2021/08/11 12:49:29;;;;;;;64.95;38.25;;;;;;;21.99;78.14;99533.97;5026521;28;20108;-85
2021/08/11 12:52:04;;;;;;;72.90;39.65;;;;;;;22.04;78.26;99527.22;5029278;28;20037;-84
2021/08/11 12:55:01;;;;;;;69.50;37.00;;;;;;;22.01;78.00;99525.22;5026682;28;20084;-85
2021/08/11 12:57:41;;;;;;;66.90;37.45;;;;;;;21.94;78.54;99516.81;5030756;28;20080;-80
2021/08/11 13:00:10;;;;;;;56.70;37.30;;;;;;;21.98;77.98;99521.22;5026996;28;20044;-79
2021/08/11 13:02:36;;;;;;;68.35;39.72;;;;;;;21.97;78.43;99514.06;5033638;28;20543;-79
2021/08/11 13:05:12;;;;;;;66.88;38.67;;;;;;;21.96;78.28;99515.25;5032741;28;20061;-79
2021/08/11 13:08:00;;;;;;;71.53;42.50;;;;;;;21.87;78.03;99500.03;5033089;28;20041;-80
2021/08/11 13:10:30;;;;;;;64.50;38.53;;;;;;;22.03;77.74;99515.28;5033380;28;20119;-80
2021/08/11 13:12:58;;;;;;;66.55;40.28;;;;;;;22.03;78.06;99515.28;5029681;28;20511;-80
2021/08/11 13:15:33;;;;;;;76.18;41.38;;;;;;;22.00;77.62;99516.06;5031993;28;20040;-80
2021/08/11 13:18:02;;;;;;;69.63;41.20;;;;;;;21.92;77.53;99511.63;5033343;28;20045;-80
2021/08/11 13:20:31;;;;;;;63.28;37.00;;;;;;;21.87;77.32;99509.19;5034258;28;20060;-80
2021/08/11 13:25:25;;;;;;;70.68;37.92;;;;;;;21.91;77.47;99492.53;5033713;28;20494;-80
2021/08/11 13:27:53;;;;;;;53.67;34.88;;;;;;;21.82;76.72;99492.88;5034215;28;20533;-80
2021/08/11 13:30:19;;;;;;;58.22;37.03;;;;;;;21.79;77.87;99491.63;5033678;28;20159;-81
2021/08/11 13:32:48;;;;;;;61.25;35.92;;;;;;;21.81;77.38;99492.03;5034241;28;20393;-80
2021/08/11 13:35:14;;;;;;;;;;;;;;;21.79;78.01;99483.28;5033978;28;20044;-80
2021/08/11 13:37:41;;;;;;;63.72;37.75;;;;;;;21.87;77.65;99483.34;5034222;28;19964;-80
2021/08/11 13:40:10;;;;;;;74.90;38.67;;;;;;;21.88;77.76;99487.72;5034342;28;20033;-89
2021/08/11 13:42:38;;;;;;;65.40;38.58;;;;;;;21.92;77.79;99489.38;5034062;28;20049;-82
2021/08/11 13:45:04;;;;;;;62.65;37.25;;;;;;;21.78;77.42;99470.53;5033726;28;20129;-80
2021/08/11 13:47:31;;;;;;;63.03;34.70;;;;;;;21.88;76.19;99469.03;5033513;28;20052;-86
2021/08/11 13:49:57;;;;;;;56.83;37.05;;;;;;;21.88;77.04;99480.16;5033354;28;20045;-80
2021/08/11 13:52:25;;;;;;;61.92;37.85;;;;;;;21.93;77.86;99481.81;5033789;28;20045;-80
2021/08/11 13:54:52;;;;;;;61.15;37.35;;;;;;;21.98;77.62;99464.75;5033627;28;20108;-80
2021/08/11 13:57:19;;;;;;;61.75;35.60;;;;;;;21.91;77.53;99475.81;5033197;28;20084;-80
2021/08/11 13:59:45;;;;;;;66.40;36.37;;;;;;;21.92;77.42;99455.16;5033549;28;20045;-80
2021/08/11 14:02:11;;;;;;;58.83;36.50;;;;;;;21.97;76.94;99461.16;5033291;28;20292;-80
2021/08/11 14:04:37;;;;;;;50.97;32.17;;;;;;;21.98;76.38;99470.31;5031741;28;20303;-80
2021/08/11 14:07:05;;;;;;;58.83;34.25;;;;;;;21.93;76.40;99454.78;5022446;28;20029;-86
2021/08/11 14:09:32;;;;;;;52.05;34.78;;;;;;;21.95;76.21;99473.84;5027544;28;20042;-80
2021/08/11 14:11:59;;;;;;;53.88;34.47;;;;;;;22.00;76.67;99468.75;5029336;28;20088;-78
2021/08/11 14:14:27;;;;;;;66.78;36.58;;;;;;;22.02;76.35;99476.72;5028575;28;20502;-85
2021/08/11 14:16:53;;;;;;;59.70;32.88;;;;;;;22.05;76.52;99487.88;5024250;28;20033;-81
2021/08/11 14:19:19;;;;;;;51.45;31.77;;;;;;;21.98;76.24;99500.94;5011065;28;20041;-85
2021/08/11 14:21:48;;;;;;;58.00;29.95;;;;;;;21.88;76.27;99502.44;5029447;28;20116;-86
2021/08/11 14:24:14;;;;;;;62.95;31.35;;;;;;;21.90;76.89;99494.50;5021575;28;20121;-80
2021/08/11 14:26:40;;;;;;;54.23;33.50;;;;;;;22.00;76.76;99506.91;5024323;28;20089;-83
2021/08/11 14:29:06;;;;;;;59.63;33.37;;;;;;;22.07;77.07;99518.09;5029155;28;20520;-88
2021/08/11 14:31:33;;;;;;;60.83;34.30;;;;;;;22.13;77.03;99516.56;5025878;28;20486;-86
2021/08/11 14:33:58;;;;;;;56.58;33.03;;;;;;;22.12;76.99;99512.19;5027511;28;20048;-80
2021/08/11 14:36:26;;;;;;;70.85;34.92;;;;;;;22.12;76.86;99519.72;5020699;28;20065;-80
2021/08/11 14:38:52;;;;;;;59.60;37.37;;;;;;;22.08;77.53;99504.97;5019942;28;20077;-86
2021/08/11 14:41:22;;;;;;;64.75;40.67;;;;;;;22.12;77.16;99516.94;5028184;28;20049;-80
2021/08/11 14:43:48;;;;;;;62.83;44.08;;;;;;;22.10;76.51;99520.13;5009795;28;20478;-85
2021/08/11 14:46:15;;;;;;;66.60;46.10;;;;;;;22.11;77.27;99518.13;5027692;28;20587;-80
2021/08/11 14:48:41;;;;;;;74.50;45.90;;;;;;;22.09;76.99;99512.97;5027565;28;20121;-79
2021/08/11 14:51:07;;;;;;;76.35;46.63;;;;;;;22.05;77.48;99512.94;5026852;28;20111;-80
2021/08/11 14:53:34;;;;;;;80.13;51.28;;;;;;;22.04;77.57;99516.88;5027256;28;20076;-80
2021/08/11 14:56:00;;;;;;;68.32;40.30;;;;;;;22.01;77.75;99512.09;5023057;28;20088;-80
2021/08/11 14:58:26;;;;;;;70.32;43.45;;;;;;;22.04;78.33;99513.31;5022989;28;20402;-80
2021/08/11 15:00:52;;;;;;;112.45;88.00;;;;;;;22.02;77.94;99515.69;5026458;28;20041;-86
2021/08/11 15:03:18;;;;;;;103.43;70.90;;;;;;;22.02;77.99;99510.13;5026406;28;20037;-80
2021/08/11 15:05:45;;;;;;;82.10;51.50;;;;;;;22.02;77.97;99524.84;5024659;28;20284;-81
2021/08/11 15:08:12;;;;;;;68.60;37.73;;;;;;;21.95;77.70;99510.88;5026324;28;20682;-80
2021/08/11 15:10:38;;;;;;;59.13;35.25;;;;;;;21.96;78.07;99526.38;5003969;28;20362;-80
2021/08/11 15:13:05;;;;;;;63.75;33.72;;;;;;;21.98;78.69;99524.00;5007902;28;20524;-79
2021/08/11 15:15:33;;;;;;;51.83;30.08;;;;;;;21.97;78.08;99522.41;5025493;28;20029;-79
2021/08/11 15:17:59;;;;;;;61.70;32.88;;;;;;;21.92;78.59;99521.94;5007775;28;20052;-80
2021/08/11 15:20:29;;;;;;;72.63;34.53;;;;;;;21.91;79.02;99525.91;5024775;28;20490;-80
2021/08/11 15:22:56;;;;;;;54.28;33.67;;;;;;;21.88;78.93;99524.69;5024449;28;20224;-80
2021/08/11 15:25:23;;;;;;;71.43;35.08;;;;;;;21.87;79.05;99527.88;5025471;28;20097;-81
2021/08/11 15:27:49;;;;;;;52.08;32.40;;;;;;;21.83;79.06;99522.28;5025662;28;20041;-80
2021/08/11 15:30:16;;;;;;;68.32;34.80;;;;;;;21.77;79.37;99526.59;5024459;28;20076;-80
2021/08/11 15:32:42;;;;;;;58.30;34.30;;;;;;;21.58;79.33;99508.91;5024705;28;20569;-80
2021/08/11 15:35:09;;;;;;;;;;;;;;;21.67;78.70;99528.09;4990554;28;20072;-79
2021/08/11 15:37:36;;;;;;;60.60;33.65;;;;;;;21.68;78.99;99520.53;5024145;28;19921;-80
2021/08/11 15:40:11;;;;;;;68.32;34.92;;;;;;;21.66;79.75;99525.72;5023962;28;20041;-79
2021/08/11 15:42:39;;;;;;;63.95;35.60;;;;;;;21.64;79.38;99514.16;5024359;28;20041;-79
2021/08/11 15:45:06;;;;;;;;;;;;;;;21.65;79.75;99516.53;5004360;28;20033;-79
2021/08/11 15:47:35;;;;;;;64.22;39.67;;;;;;;21.57;79.72;99512.88;5019119;28;19924;-82
2021/08/11 15:50:07;;;;;;;68.85;42.38;;;;;;;21.57;79.82;99507.31;5023159;28;20506;-88
2021/08/11 15:52:33;;;;;;;81.00;46.72;;;;;;;21.51;79.90;99508.84;5018909;28;20100;-83
2021/08/11 15:54:59;;;;;;;91.43;50.33;;;;;;;21.58;79.96;99519.25;5019216;28;20041;-79
2021/08/11 15:57:28;;;;;;;91.10;50.38;;;;;;;21.54;80.31;99518.41;5020362;28;20090;-81
2021/08/11 15:59:54;;;;;;;83.60;50.42;;;;;;;21.53;80.17;99511.28;5021690;28;20053;-80
2021/08/11 16:02:22;;;;;;;88.13;50.60;;;;;;;21.51;80.50;99503.28;5021176;28;20083;-81
2021/08/11 16:04:49;;;;;;;90.78;51.80;;;;;;;21.50;80.60;99504.47;5020371;28;20049;-84
2021/08/11 16:07:17;;;;;;;81.63;48.58;;;;;;;21.54;80.80;99499.75;5020988;28;20041;-80
2021/08/11 16:09:43;;;;;;;;;;;;;;;21.55;81.29;99500.53;5021775;28;20564;-79
2021/08/11 16:12:10;;;;;;;76.53;44.22;;;;;;;21.49;80.91;99490.94;5018810;28;19925;-85
2021/08/11 16:14:36;;;;;;;80.32;44.25;;;;;;;21.47;81.00;99490.53;5024787;28;20136;-80
2021/08/11 16:17:03;;;;;;;79.30;45.40;;;;;;;21.33;81.27;99483.63;5030260;28;20556;-80
2021/08/11 16:19:29;;;;;;;75.68;43.45;;;;;;;21.40;81.60;99491.25;5030969;28;20041;-80
2021/08/11 16:21:55;;;;;;;91.10;49.28;;;;;;;21.42;81.71;99483.31;5031220;28;20088;-84
2021/08/11 16:26:48;;;;;;;90.10;48.92;;;;;;;21.42;81.43;99485.31;5027287;28;20132;-88
2021/08/11 16:29:14;;;;;;;96.78;50.63;;;;;;;21.39;81.38;99486.06;5029825;28;20041;-88
2021/08/11 16:31:40;;;;;;;78.32;47.53;;;;;;;21.33;81.85;99485.59;5032410;28;20038;-79
2021/08/11 16:34:06;;;;;;;82.07;44.40;;;;;;;21.22;82.09;99479.91;5031640;28;20040;-78
2021/08/11 16:36:33;;;;;;;71.53;45.00;;;;;;;21.23;81.86;99481.53;5033661;28;20037;-80
2021/08/11 16:38:59;;;;;;;75.20;44.23;;;;;;;21.22;82.00;99474.34;5033731;28;20136;-85
2021/08/11 16:41:25;;;;;;;74.18;44.95;;;;;;;21.27;81.92;99487.91;5033836;28;20094;-82
2021/08/11 16:43:51;;;;;;;63.63;34.00;;;;;;;21.54;81.76;99480.28;5033688;28;20041;-86
2021/08/11 16:46:17;;;;;;;;;;;;;;;21.65;80.40;99480.38;5028565;28;20104;-86
2021/08/11 16:48:43;;;;;;;74.18;42.88;;;;;;;21.54;80.78;99485.03;5032565;28;19925;-80
2021/08/11 16:51:11;;;;;;;82.03;46.85;;;;;;;21.39;81.41;99477.72;5031922;28;20528;-78
2021/08/11 16:53:37;;;;;;;79.35;47.95;;;;;;;21.37;81.73;99485.66;5015906;28;20037;-79
2021/08/11 16:56:04;;;;;;;84.30;47.30;;;;;;;21.38;81.67;99493.63;5033589;28;20033;-79
2021/08/11 16:58:33;;;;;;;85.05;47.20;;;;;;;21.41;81.53;99500.41;5016208;28;20037;-82
2021/08/11 17:00:59;;;;;;;76.43;48.03;;;;;;;21.34;81.59;99476.91;5033471;28;20452;-80
2021/08/11 17:03:25;;;;;;;84.10;50.53;;;;;;;21.40;81.75;99485.69;5032307;28;20045;-79
2021/08/11 17:05:51;;;;;;;93.35;53.28;;;;;;;21.38;81.76;99481.69;5031948;28;20092;-84
2021/08/11 17:08:17;;;;;;;81.10;51.83;;;;;;;21.27;82.14;99476.00;5032269;28;20037;-86
2021/08/11 17:10:45;;;;;;;86.80;47.83;;;;;;;21.22;82.33;99476.34;5032253;28;20037;-78
2021/08/11 17:13:11;;;;;;;82.00;50.42;;;;;;;21.14;82.38;99477.44;5032021;28;20080;-77
2021/08/11 17:15:37;;;;;;;95.22;54.17;;;;;;;21.07;82.83;99458.72;5031733;28;20462;-91
2021/08/11 17:18:03;;;;;;;92.45;54.60;;;;;;;21.17;83.05;99466.38;5028408;28;20034;-85
2021/08/11 17:20:30;;;;;;;109.70;65.35;;;;;;;21.17;82.87;99465.56;5025413;28;20092;-78
2021/08/11 17:22:56;;;;;;;;;;;;;;;21.22;82.84;99476.34;5030559;28;20044;-85
2021/08/11 17:25:22;;;;;;;92.20;53.53;;;;;;;21.25;82.78;99484.72;5030875;28;20389;-91
2021/08/11 17:27:48;;;;;;;102.38;53.88;;;;;;;21.32;82.25;99483.97;5033814;28;20044;-92
2021/08/11 17:30:15;;;;;;;;;;;;;;;21.35;82.20;99484.06;5008197;28;20054;-78
2021/08/11 17:32:41;;;;;;;84.60;50.22;;;;;;;21.35;81.94;99486.84;4996074;28;19983;-77
2021/08/11 17:35:19;;;;;;;75.53;47.60;;;;;;;21.35;81.86;99484.06;4997579;28;20041;-81
2021/08/11 17:37:48;;;;;;;83.40;48.55;;;;;;;21.33;81.70;99482.81;5001770;28;20396;-83
2021/08/11 17:40:14;;;;;;;73.70;44.42;;;;;;;21.33;81.14;99488.38;5003680;28;20199;-79
2021/08/11 17:42:42;;;;;;;73.00;42.65;;;;;;;21.32;81.01;99483.97;5006767;28;20045;-78
2021/08/11 17:45:09;;;;;;;71.88;41.95;;;;;;;21.33;80.66;99475.28;5012524;28;20053;-79
2021/08/11 17:47:38;;;;;;;77.68;42.50;;;;;;;21.29;80.20;99474.44;5006105;28;20038;-85
2021/08/11 17:50:06;;;;;;;73.20;39.78;;;;;;;21.24;80.18;99469.22;4992552;28;20105;-80
2021/08/11 17:52:36;;;;;;;65.97;39.42;;;;;;;21.18;80.21;99462.41;5007087;28;20474;-84
2021/08/11 17:55:06;;;;;;;74.68;42.65;;;;;;;21.13;80.48;99467.53;4991646;28;20039;-83
2021/08/11 17:57:34;;;;;;;86.57;47.28;;;;;;;21.06;81.30;99471.00;5001080;28;20042;-79
2021/08/11 18:00:01;;;;;;;91.38;51.28;;;;;;;21.06;81.50;99465.47;5009322;28;20041;-79
2021/08/11 18:02:32;;;;;;;84.78;51.60;;;;;;;20.90;81.45;99448.19;4997831;28;20582;-87
2021/08/11 18:05:01;;;;;;;67.95;42.85;;;;;;;20.82;81.34;99445.31;5004090;28;20046;-94
2021/08/11 18:07:29;;;;;;;76.50;43.00;;;;;;;20.65;81.30;99429.22;4965649;28;20145;-95
2021/08/11 18:10:02;;;;;;;72.55;42.00;;;;;;;20.39;80.95;99391.97;4999412;28;20499;-92
2021/08/11 18:12:31;;;;;;;63.30;37.65;;;;;;;20.60;80.65;99426.81;4961637;28;20141;-93
2021/08/11 18:15:02;;;;;;;60.42;33.85;;;;;;;20.64;79.78;99430.41;4974865;28;20034;-93
2021/08/11 18:17:30;;;;;;;57.92;35.88;;;;;;;20.78;80.04;99461.16;4960697;28;20046;-93
2021/08/11 18:19:56;;;;;;;64.70;37.28;;;;;;;20.70;80.14;99453.91;4978022;28;20496;-94
2021/08/11 18:22:26;;;;;;;64.72;39.33;;;;;;;20.39;80.84;99416.97;4961775;28;20038;-92
2021/08/11 18:24:57;;;;;;;73.57;42.72;;;;;;;20.52;81.43;99442.56;4996668;28;20041;-94
2021/08/11 18:27:25;;;;;;;83.03;47.53;;;;;;;20.13;82.24;99392.84;4961849;28;20038;-96
2021/08/11 18:29:51;;;;;;;85.57;46.22;;;;;;;20.06;82.55;99397.47;4976120;28;20049;-93
2021/08/11 18:32:18;;;;;;;79.68;45.92;;;;;;;20.40;82.65;99454.69;4982124;28;20065;-93
2021/08/11 18:34:53;;;;;;;;;;;;;;;20.42;82.48;99446.75;4966921;28;20038;-93
2021/08/11 18:37:20;;;;;;;66.10;37.55;;;;;;;20.18;81.94;99413.91;5015582;28;19924;-90
2021/08/11 18:39:46;;;;;;;79.07;42.13;;;;;;;20.07;82.01;99391.56;4982274;28;20037;-89
2021/08/11 18:42:13;;;;;;;;;;;;;;;20.41;82.07;99459.03;5014835;28;20280;-89
2021/08/11 18:44:40;;;;;;;66.03;39.67;;;;;;;19.98;82.38;99387.47;5024033;28;20278;-89
2021/08/11 18:47:08;;;;;;;73.25;40.83;;;;;;;20.20;82.71;99439.31;4998253;28;20152;-89
2021/08/11 18:49:35;;;;;;;67.13;38.05;;;;;;;20.23;82.68;99433.03;5011759;28;20041;-88
